createdAt,value
2018-09-06T00:00:31.261Z,8.27
2018-09-06T00:05:34.376Z,7.07
2018-09-06T00:10:37.457Z,6.40
2018-09-06T00:15:40.572Z,6.33
2018-09-06T00:20:43.669Z,5.63
2018-09-06T00:25:53.427Z,7.70
2018-09-06T00:30:56.539Z,11.40
2018-09-06T00:41:09.098Z,7.73
2018-09-06T00:46:12.215Z,5.47
2018-09-06T00:51:15.364Z,8.13
2018-09-06T00:56:18.467Z,7.70
2018-09-06T01:01:21.586Z,12.47
2018-09-06T01:06:24.676Z,7.30
2018-09-06T01:11:27.772Z,7.93
2018-09-06T01:16:30.872Z,7.73
2018-09-06T01:21:33.987Z,8.30
2018-09-06T01:26:37.102Z,9.13
2018-09-06T01:31:40.210Z,8.40
2018-09-06T01:36:45.522Z,8.20
2018-09-06T01:41:48.626Z,8.23
2018-09-06T01:46:51.706Z,8.47
2018-09-06T01:51:54.815Z,7.67
2018-09-06T01:56:57.917Z,8.90
2018-09-06T02:02:01.096Z,8.40
2018-09-06T02:07:04.204Z,9.33
2018-09-06T02:12:07.291Z,10.80
2018-09-06T02:17:10.382Z,8.93
2018-09-06T02:22:13.487Z,9.93
2018-09-06T02:27:16.593Z,11.87
2018-09-06T02:32:19.702Z,10.23
2018-09-06T02:37:22.802Z,10.10
2018-09-06T02:42:25.919Z,10.77
2018-09-06T02:47:29.055Z,10.30
2018-09-06T02:52:32.143Z,10.70
2018-09-06T02:57:35.222Z,13.80
2018-09-06T03:02:38.323Z,12.43
2018-09-06T03:07:41.393Z,10.67
2018-09-06T03:12:44.478Z,12.30
2018-09-06T03:17:47.552Z,12.30
2018-09-06T03:22:50.640Z,12.87
2018-09-06T03:27:53.739Z,14.50
2018-09-06T03:32:56.827Z,15.20
2018-09-06T03:37:59.894Z,23.20
2018-09-06T03:43:02.960Z,11.83
2018-09-06T03:48:06.277Z,17.30
2018-09-06T03:53:09.366Z,10.60
2018-09-06T03:58:12.451Z,15.57
2018-09-06T04:03:15.711Z,16.07
2018-09-06T04:08:18.770Z,13.83
2018-09-06T04:13:21.869Z,15.90
2018-09-06T04:18:24.966Z,16.73
2018-09-06T04:23:28.001Z,14.23
2018-09-06T04:28:31.079Z,13.57
2018-09-06T04:33:34.170Z,15.60
2018-09-06T04:38:37.265Z,14.50
2018-09-06T04:43:40.396Z,17.23
2018-09-06T04:48:43.484Z,16.97
2018-09-06T04:53:46.561Z,13.13
2018-09-06T04:58:49.676Z,16.50
2018-09-06T05:03:52.778Z,16.43
2018-09-06T05:08:55.869Z,21.70
2018-09-06T05:13:58.982Z,21.10
2018-09-06T05:19:02.177Z,20.40
2018-09-06T05:24:05.394Z,19.47
2018-09-06T05:29:08.482Z,23.23
2018-09-06T05:34:11.597Z,20.03
2018-09-06T05:39:14.706Z,22.77
2018-09-06T05:44:17.818Z,23.70
2018-09-06T05:49:20.926Z,26.47
2018-09-06T05:54:24.007Z,22.97
2018-09-06T05:59:27.237Z,37.53
2018-09-06T06:04:30.259Z,24.03
2018-09-06T06:09:33.421Z,26.17
2018-09-06T06:14:36.530Z,32.67
2018-09-06T06:19:39.648Z,30.23
2018-09-06T06:24:43.575Z,29.67
2018-09-06T06:29:46.683Z,25.10
2018-09-06T06:34:49.793Z,22.17
2018-09-06T06:39:52.988Z,30.97
2018-09-06T06:44:56.026Z,31.50
2018-09-06T06:49:59.110Z,26.40
2018-09-06T06:55:02.233Z,21.60
2018-09-06T07:00:05.425Z,26.50
2018-09-06T07:05:08.510Z,32.70
2018-09-06T07:10:11.632Z,25.03
2018-09-06T07:15:14.743Z,23.73
2018-09-06T07:20:17.841Z,32.07
2018-09-06T07:25:20.920Z,29.73
2018-09-06T07:37:46.855Z,27.73
2018-09-06T07:42:49.947Z,27.10
2018-09-06T07:47:53.037Z,28.80
2018-09-06T07:52:56.144Z,22.20
2018-09-06T07:57:59.231Z,21.57
2018-09-06T08:03:02.311Z,22.37
2018-09-06T08:08:05.370Z,24.60
2018-09-06T08:13:08.482Z,17.60
2018-09-06T08:18:11.574Z,23.00
2018-09-06T08:23:14.713Z,21.73
2018-09-06T08:28:17.820Z,20.70
2018-09-06T08:33:20.950Z,18.30
2018-09-06T08:38:24.143Z,17.93
2018-09-06T08:43:27.255Z,15.57
2018-09-06T08:48:30.487Z,16.63
2018-09-06T08:53:33.674Z,16.87
2018-09-06T08:58:36.928Z,16.47
2018-09-06T09:03:40.011Z,18.27
2018-09-06T09:08:43.159Z,16.13
2018-09-06T09:13:46.292Z,15.43
2018-09-06T09:18:49.499Z,24.40
2018-09-06T09:23:52.720Z,18.00
2018-09-06T09:28:55.822Z,20.57
2018-09-06T09:33:59.021Z,18.80
2018-09-06T09:39:02.217Z,17.90
2018-09-06T09:44:05.391Z,20.23
2018-09-06T09:49:08.594Z,19.87
2018-09-06T09:54:11.738Z,17.93
2018-09-06T09:59:14.822Z,21.43
2018-09-06T10:04:23.380Z,22.37
2018-09-06T10:09:27.375Z,16.77
2018-09-06T10:14:30.461Z,19.67
2018-09-06T10:19:33.573Z,16.60
2018-09-06T10:24:36.638Z,17.77
2018-09-06T10:29:39.757Z,13.70
2018-09-06T10:34:42.850Z,17.27
2018-09-06T10:39:45.943Z,13.87
2018-09-06T10:44:49.062Z,15.23
2018-09-06T10:49:52.186Z,14.83
2018-09-06T10:54:55.321Z,15.17
2018-09-06T10:59:58.887Z,13.43
2018-09-06T11:05:02.002Z,15.50
2018-09-06T11:10:05.240Z,14.90
2018-09-06T11:15:08.432Z,13.30
2018-09-06T11:20:11.455Z,13.53
2018-09-06T11:25:14.559Z,15.10
2018-09-06T11:30:17.634Z,9.57
2018-09-06T11:35:20.750Z,10.90
2018-09-06T11:40:23.921Z,10.47
2018-09-06T11:45:27.119Z,12.97
2018-09-06T11:50:30.219Z,11.40
2018-09-06T11:55:33.297Z,15.60
2018-09-06T12:00:38.398Z,11.10
2018-09-06T12:05:41.511Z,9.57
2018-09-06T12:10:44.601Z,12.83
2018-09-06T12:15:47.727Z,8.70
2018-09-06T12:20:50.814Z,11.93
2018-09-06T12:25:53.915Z,10.63
2018-09-06T12:30:57.019Z,10.50
2018-09-06T12:36:00.177Z,9.47
2018-09-06T12:41:03.437Z,9.50
2018-09-06T12:46:06.831Z,12.67
2018-09-06T12:51:10.060Z,9.47
2018-09-06T12:56:13.478Z,10.93
2018-09-06T13:01:16.578Z,11.90
2018-09-06T13:06:19.753Z,13.80
2018-09-06T13:11:22.844Z,15.17
2018-09-06T13:16:25.952Z,8.10
2018-09-06T13:21:29.070Z,7.50
2018-09-06T13:26:32.163Z,12.00
2018-09-06T13:31:35.264Z,9.07
2018-09-06T13:36:38.392Z,8.73
2018-09-06T13:41:41.606Z,10.10
2018-09-06T13:46:44.788Z,11.33
2018-09-06T13:51:48.071Z,11.60
2018-09-06T13:56:51.230Z,8.93
2018-09-06T14:01:54.312Z,8.60
2018-09-06T14:06:57.413Z,7.90
2018-09-06T14:12:01.415Z,13.97
2018-09-06T14:17:04.522Z,11.90
2018-09-06T14:22:07.655Z,8.07
2018-09-06T14:27:10.778Z,10.17
2018-09-06T14:32:13.899Z,12.23
2018-09-06T14:37:17.044Z,8.33
2018-09-06T14:42:20.173Z,13.87
2018-09-06T14:47:23.247Z,12.10
2018-09-06T14:52:26.358Z,13.47
2018-09-06T14:57:29.437Z,10.60
2018-09-06T15:02:32.516Z,8.40
2018-09-06T15:07:35.655Z,9.90
2018-09-06T15:12:38.763Z,11.27
2018-09-06T15:17:41.862Z,8.73
2018-09-06T15:22:44.953Z,12.17
2018-09-06T15:27:48.057Z,9.00
2018-09-06T15:32:51.162Z,11.10
2018-09-06T15:37:54.258Z,9.27
2018-09-06T15:42:57.327Z,7.60
2018-09-06T15:48:00.486Z,11.07
2018-09-06T15:53:03.590Z,8.97
2018-09-06T15:58:06.739Z,7.93
2018-09-06T16:03:09.914Z,9.60
2018-09-06T16:08:14.724Z,12.73
2018-09-06T16:13:18.551Z,10.90
2018-09-06T16:18:21.638Z,7.27
2018-09-06T16:23:24.772Z,8.30
2018-09-06T16:28:27.963Z,13.30
2018-09-06T16:33:31.124Z,9.33
2018-09-06T16:38:34.339Z,11.27
2018-09-06T16:43:37.697Z,11.90
2018-09-06T16:48:40.777Z,8.40
2018-09-06T16:53:43.861Z,10.17
2018-09-06T16:58:47.064Z,7.67
2018-09-06T17:03:50.718Z,9.33
2018-09-06T17:08:53.817Z,11.93
2018-09-06T17:13:57.050Z,8.57
2018-09-06T17:19:00.199Z,8.37
2018-09-06T17:24:03.298Z,8.63
2018-09-06T17:29:06.407Z,7.83
2018-09-06T17:34:09.466Z,10.23
2018-09-06T17:39:13.493Z,9.77
2018-09-06T17:44:16.462Z,9.90
2018-09-06T17:49:19.619Z,9.90
2018-09-06T17:54:22.707Z,10.20
2018-09-06T17:59:25.782Z,14.40
2018-09-06T18:04:28.879Z,11.40
2018-09-06T18:09:31.966Z,12.40
2018-09-06T18:14:35.095Z,10.67
2018-09-06T18:19:38.186Z,12.17
2018-09-06T18:24:41.371Z,11.47
2018-09-06T18:29:44.495Z,11.60
2018-09-06T18:34:47.614Z,14.10
2018-09-06T18:39:50.764Z,17.17
2018-09-06T18:44:53.848Z,10.07
2018-09-06T18:49:57.011Z,10.43
2018-09-06T18:55:00.120Z,11.90
2018-09-06T19:00:03.290Z,12.70
2018-09-06T19:05:06.695Z,18.80
2018-09-06T19:10:11.052Z,9.53
2018-09-06T19:15:14.140Z,33.67
2018-09-06T19:20:17.370Z,16.83
2018-09-06T19:25:21.101Z,11.80
2018-09-06T19:30:24.251Z,12.97
2018-09-06T19:35:27.433Z,13.67
2018-09-06T19:40:30.631Z,16.03
2018-09-06T19:45:33.734Z,11.37
2018-09-06T19:50:36.834Z,11.73
2018-09-06T19:55:40.000Z,11.47
2018-09-06T20:00:43.095Z,13.87
2018-09-06T20:05:46.316Z,11.40
2018-09-06T20:10:50.566Z,15.93
2018-09-06T20:15:53.642Z,13.87
2018-09-06T20:20:56.740Z,13.37
2018-09-06T20:25:59.819Z,12.07
2018-09-06T20:31:03.110Z,19.80
2018-09-06T20:36:06.880Z,14.40
2018-09-06T20:41:09.981Z,17.03
2018-09-06T20:46:13.062Z,16.23
2018-09-06T20:51:16.147Z,23.50
2018-09-06T20:56:19.244Z,22.40
2018-09-06T21:01:22.526Z,26.70
2018-09-06T21:06:25.611Z,20.00
2018-09-06T21:11:28.687Z,14.60
2018-09-06T21:16:31.841Z,25.93
2018-09-06T21:21:34.891Z,18.93
2018-09-06T21:26:37.986Z,30.20
2018-09-06T21:31:41.075Z,26.47
2018-09-06T21:36:44.184Z,29.27
2018-09-06T21:41:47.270Z,18.40
2018-09-06T21:46:50.354Z,23.90
2018-09-06T21:51:53.660Z,26.40
2018-09-06T21:56:56.806Z,29.90
2018-09-06T22:01:59.921Z,24.67
2018-09-06T22:07:03.010Z,28.80
2018-09-06T22:12:10.382Z,24.67
2018-09-06T22:17:13.694Z,23.60
2018-09-06T22:22:16.758Z,25.53
2018-09-06T22:27:19.845Z,26.57
2018-09-06T22:32:22.970Z,20.80
2018-09-06T22:37:26.178Z,25.50
2018-09-06T22:42:29.386Z,23.87
2018-09-06T22:47:32.488Z,24.37
2018-09-06T22:52:35.615Z,26.67
2018-09-06T22:57:38.835Z,26.63
2018-09-06T23:02:47.636Z,26.23
2018-09-06T23:07:50.770Z,26.63
2018-09-06T23:12:53.858Z,25.03
2018-09-06T23:17:56.930Z,16.43
2018-09-06T23:23:00.015Z,27.33
2018-09-06T23:28:03.171Z,24.20
2018-09-06T23:33:06.229Z,27.53
2018-09-06T23:38:09.310Z,27.00
2018-09-06T23:43:12.413Z,27.60
2018-09-06T23:48:15.513Z,23.23
2018-09-06T23:53:18.641Z,30.00
2018-09-06T23:58:21.736Z,34.03
